SAOC/RCU METAR and TAF weather

Enter ICAO airport designator
Station Type Date Time Source
SAOC METAR 2023/03/28 11:00 UTC NOAA

SAOC 281100Z 36008KT 8000 NSC 17/15 Q1008


Station Type Date Time Source
SAOC Decoded METAR 2023/03/28 11:00 UTC NOAA

Rio Cuarto Aerodrome, Argentina (SAOC) 33-07S 064-14W 421M
Mar 28, 2023 - 07:00 AM EDT / 2023.03.28 1100 UTC
Wind: from the N (360 degrees) at 9 MPH (8 KT):0
Visibility: 4 mile(s):0
Temperature: 62 F (17 C)
Dew Point: 59 F (15 C)
Relative Humidity: 88%
Pressure (altimeter): 29.77 in. Hg (1008 hPa)
ob: SAOC 281100Z 36008KT 8000 NSC 17/15 Q1008
cycle: 11

Station Type Date Time Source
SAOC TAF 2023/02/26 06:12 UTC NOAA

TAF SAOC 260500Z 2606/2706 27005KT CAVOK TX33/2619Z TN15/2610Z
BECMG 2609/2612 23015KT 9999 FEW030

Example: see airport list